createdAt,value
2023-04-01T00:00:45.716Z,96757.13
2023-04-01T00:02:17.486Z,96763.88
2023-04-01T00:03:49.372Z,96759.03
2023-04-01T00:05:21.309Z,96757.97
2023-04-01T00:06:53.118Z,96752.91
2023-04-01T00:08:26.111Z,96745.41
2023-04-01T00:09:57.645Z,96756.97
2023-04-01T00:11:29.271Z,96749.50
2023-04-01T00:13:00.956Z,96743.28
2023-04-01T00:14:32.586Z,96747.69
2023-04-01T00:16:19.797Z,96754.34
2023-04-01T00:17:52.462Z,96751.53
2023-04-01T00:19:24.071Z,96752.91
2023-04-01T00:20:55.788Z,96744.59
2023-04-01T00:22:27.925Z,96746.94
2023-04-01T00:24:00.204Z,96740.91
2023-04-01T00:25:32.681Z,96739.22
2023-04-01T00:27:04.912Z,96738.38
2023-04-01T00:28:37.225Z,96737.06
2023-04-01T00:30:10.018Z,96743.09
2023-04-01T00:31:41.733Z,96738.13
2023-04-01T00:33:13.517Z,96741.19
2023-04-01T00:34:45.613Z,96737.22
2023-04-01T00:36:20.233Z,96742.38
2023-04-01T00:37:52.000Z,96741.81
2023-04-01T00:39:23.644Z,96737.78
2023-04-01T00:40:59.340Z,96747.09
2023-04-01T00:42:30.938Z,96740.38
2023-04-01T00:44:23.798Z,96741.88
2023-04-01T00:45:55.498Z,96742.53
2023-04-01T00:47:28.455Z,96730.78
2023-04-01T00:49:01.921Z,96731.78
2023-04-01T00:50:36.052Z,96736.91
2023-04-01T00:52:11.300Z,96733.13
2023-04-01T00:53:45.612Z,96731.94
2023-04-01T00:55:20.241Z,96729.69
2023-04-01T00:56:57.455Z,96727.47
2023-04-01T00:58:31.950Z,96729.53
2023-04-01T01:00:08.344Z,96731.63
2023-04-01T01:01:40.298Z,96732.69
2023-04-01T01:03:13.605Z,96735.66
2023-04-01T01:04:45.388Z,96732.41
2023-04-01T01:06:55.032Z,96741.47
2023-04-01T01:08:52.626Z,96736.38
2023-04-01T01:10:36.172Z,96736.44
2023-04-01T01:12:15.021Z,96729.50
2023-04-01T01:14:02.239Z,96738.31
2023-04-01T01:15:42.372Z,96734.91
2023-04-01T01:17:29.231Z,96741.34
2023-04-01T01:19:18.925Z,96745.84
2023-04-01T01:21:08.893Z,96728.28
2023-04-01T01:22:53.241Z,96736.19
2023-04-01T01:24:24.874Z,96733.28
2023-04-01T01:26:35.475Z,96740.34
2023-04-01T01:28:28.878Z,96740.34
2023-04-01T01:30:25.356Z,96740.41
2023-04-01T01:32:02.551Z,96741.03
2023-04-01T01:33:39.823Z,96740.59
2023-04-01T01:35:23.375Z,96742.97
2023-04-01T01:37:00.169Z,96742.16
2023-04-01T01:38:34.866Z,96736.78
2023-04-01T01:40:12.650Z,96728.72
2023-04-01T01:41:50.307Z,96737.16
2023-04-01T01:43:26.453Z,96734.19
2023-04-01T01:45:00.746Z,96740.31
2023-04-01T01:46:32.986Z,96747.44
2023-04-01T01:48:06.601Z,96741.94
2023-04-01T01:49:40.566Z,96742.22
2023-04-01T01:51:12.299Z,96750.22
2023-04-01T01:52:43.918Z,96743.13
2023-04-01T01:54:18.534Z,96748.53
2023-04-01T01:55:50.190Z,96750.94
2023-04-01T01:57:33.905Z,96756.09
2023-04-01T01:59:11.849Z,96742.97
2023-04-01T02:00:48.144Z,96743.22
2023-04-01T02:02:20.865Z,96744.13
2023-04-01T02:03:53.845Z,96749.16
2023-04-01T02:05:30.268Z,96741.03
2023-04-01T02:07:14.698Z,96746.44
2023-04-01T02:08:48.052Z,96746.06
2023-04-01T02:10:23.476Z,96747.16
2023-04-01T02:12:10.817Z,96739.16
2023-04-01T02:13:53.538Z,96739.50
2023-04-01T02:15:28.194Z,96751.56
2023-04-01T02:17:08.398Z,96750.75
2023-04-01T02:18:42.118Z,96747.41
2023-04-01T02:20:18.345Z,96751.28
2023-04-01T02:21:57.824Z,96754.38
2023-04-01T02:23:29.955Z,96746.56
2023-04-01T02:25:10.640Z,96749.53
2023-04-01T02:26:42.685Z,96747.28
2023-04-01T02:28:17.502Z,96751.31
2023-04-01T02:29:49.261Z,96747.47
2023-04-01T02:31:21.708Z,96758.44
2023-04-01T02:32:54.313Z,96766.47
2023-04-01T02:34:27.231Z,96763.84
2023-04-01T02:35:59.279Z,96761.78
2023-04-01T02:37:32.303Z,96754.84
2023-04-01T02:39:06.130Z,96757.53
2023-04-01T02:40:46.835Z,96762.31
2023-04-01T02:42:18.351Z,96773.56
2023-04-01T02:43:50.065Z,96765.44
2023-04-01T02:45:22.110Z,96753.94
2023-04-01T02:46:54.046Z,96745.91
2023-04-01T02:48:26.983Z,96749.91
2023-04-01T02:50:01.206Z,96743.25
2023-04-01T02:51:33.565Z,96750.91
2023-04-01T02:53:07.144Z,96744.88
2023-04-01T02:54:39.581Z,96744.16
2023-04-01T02:56:11.422Z,96745.94
2023-04-01T02:57:42.930Z,96747.09
2023-04-01T02:59:14.562Z,96746.13
2023-04-01T03:00:46.186Z,96730.94
2023-04-01T03:02:18.319Z,96738.03
2023-04-01T03:03:50.072Z,96746.84
2023-04-01T03:05:22.174Z,96746.59
2023-04-01T03:06:53.745Z,96743.31
2023-04-01T03:08:25.468Z,96749.19
2023-04-01T03:09:57.001Z,96747.56
2023-04-01T03:11:28.708Z,96752.03
2023-04-01T03:13:00.315Z,96744.22
2023-04-01T03:14:31.980Z,96743.88
2023-04-01T03:16:04.048Z,96755.19
2023-04-01T03:17:35.893Z,96758.44
2023-04-01T03:19:07.473Z,96763.38
2023-04-01T03:20:39.260Z,96762.47
2023-04-01T03:22:13.852Z,96763.28
2023-04-01T03:23:45.539Z,96761.50
2023-04-01T03:25:17.212Z,96756.44
2023-04-01T03:26:49.523Z,96751.78
2023-04-01T03:28:21.135Z,96758.69
2023-04-01T03:29:52.773Z,96759.31
2023-04-01T03:31:24.998Z,96750.84
2023-04-01T03:33:01.550Z,96759.31
2023-04-01T03:34:33.378Z,96763.31
2023-04-01T03:36:07.592Z,96762.50
2023-04-01T03:37:39.354Z,96757.53
2023-04-01T03:39:11.093Z,96764.19
2023-04-01T03:40:46.540Z,96759.00
2023-04-01T03:42:18.927Z,96757.47
2023-04-01T03:43:50.624Z,96751.78
2023-04-01T03:45:22.221Z,96754.97
2023-04-01T03:46:54.464Z,96757.22
2023-04-01T03:48:26.971Z,96753.72
2023-04-01T03:49:58.947Z,96757.47
2023-04-01T03:51:31.501Z,96759.78
2023-04-01T03:53:03.413Z,96752.97
2023-04-01T03:54:35.247Z,96748.06
2023-04-01T03:56:08.575Z,96746.34
2023-04-01T03:57:41.338Z,96750.22
2023-04-01T03:59:21.452Z,96746.19
2023-04-01T04:00:53.740Z,96742.13
2023-04-01T04:02:25.510Z,96743.03
2023-04-01T04:03:57.374Z,96728.47
2023-04-01T04:05:29.055Z,96727.25
2023-04-01T04:07:00.728Z,96723.38
2023-04-01T04:08:34.660Z,96727.47
2023-04-01T04:10:06.981Z,96721.63
2023-04-01T04:11:38.628Z,96716.13
2023-04-01T04:13:10.719Z,96719.00
2023-04-01T04:14:48.422Z,96726.41
2023-04-01T04:16:20.286Z,96732.34
2023-04-01T04:17:58.164Z,96721.97
2023-04-01T04:19:34.819Z,96726.09
2023-04-01T04:21:07.126Z,96715.69
2023-04-01T04:22:38.677Z,96719.00
2023-04-01T04:24:12.228Z,96719.28
2023-04-01T04:26:14.893Z,96726.16
2023-04-01T04:27:47.536Z,96723.03
2023-04-01T04:29:20.326Z,96717.91
2023-04-01T04:30:52.171Z,96720.72
2023-04-01T04:32:23.686Z,96722.06
2023-04-01T04:33:55.787Z,96732.22
2023-04-01T04:35:27.476Z,96731.97
2023-04-01T04:36:59.391Z,96731.53
2023-04-01T04:38:35.364Z,96721.09
2023-04-01T04:40:07.733Z,96731.78
2023-04-01T04:41:39.345Z,96733.91
2023-04-01T04:43:15.239Z,96727.13
2023-04-01T04:44:47.635Z,96725.19
2023-04-01T04:46:20.632Z,96730.59
2023-04-01T04:47:55.345Z,96729.84
2023-04-01T04:49:27.042Z,96728.22
2023-04-01T04:50:58.826Z,96728.88
2023-04-01T04:52:30.808Z,96730.44
2023-04-01T04:54:04.749Z,96727.22
2023-04-01T04:55:53.572Z,96734.41
2023-04-01T04:57:34.100Z,96740.59
2023-04-01T04:59:06.317Z,96739.94
2023-04-01T05:00:47.865Z,96740.25
2023-04-01T05:02:26.815Z,96733.78
2023-04-01T05:03:58.478Z,96733.34
2023-04-01T05:05:30.320Z,96730.75
2023-04-01T05:07:02.324Z,96731.09
2023-04-01T05:08:36.866Z,96734.88
2023-04-01T05:10:08.847Z,96729.22
2023-04-01T05:11:41.201Z,96735.50
2023-04-01T05:13:12.863Z,96727.88
2023-04-01T05:14:45.671Z,96733.97
2023-04-01T05:16:19.421Z,96734.97
2023-04-01T05:17:51.287Z,96728.59
2023-04-01T05:19:22.929Z,96728.50
2023-04-01T05:20:55.803Z,96730.03
2023-04-01T05:22:28.261Z,96725.53
2023-04-01T05:23:59.900Z,96728.41
2023-04-01T05:25:32.431Z,96728.75
2023-04-01T05:27:05.886Z,96726.34
2023-04-01T05:28:37.902Z,96718.78
2023-04-01T05:30:10.131Z,96721.66
2023-04-01T05:32:01.810Z,96724.53
2023-04-01T05:33:34.716Z,96721.63
2023-04-01T05:35:07.204Z,96724.31
2023-04-01T05:36:39.328Z,96720.66
2023-04-01T05:38:13.478Z,96720.56
2023-04-01T05:39:45.290Z,96714.19
2023-04-01T05:41:17.480Z,96716.94
2023-04-01T05:42:51.177Z,96717.75
2023-04-01T05:44:23.585Z,96718.28
2023-04-01T05:46:04.449Z,96712.63
2023-04-01T05:47:54.847Z,96711.41
2023-04-01T05:49:28.416Z,96708.66
2023-04-01T05:51:00.807Z,96716.75
2023-04-01T05:52:33.998Z,96706.53
2023-04-01T05:54:06.897Z,96709.34
2023-04-01T05:55:38.922Z,96719.31
2023-04-01T05:57:10.853Z,96711.94
2023-04-01T05:58:51.226Z,96709.03
2023-04-01T06:00:23.082Z,96711.03
2023-04-01T06:01:55.510Z,96706.16
2023-04-01T06:03:27.766Z,96701.94
2023-04-01T06:05:14.462Z,96701.31
2023-04-01T06:06:46.525Z,96695.06
2023-04-01T06:08:20.538Z,96700.75
2023-04-01T06:09:52.943Z,96698.38
2023-04-01T06:12:10.910Z,96700.16
2023-04-01T06:14:07.029Z,96708.53
2023-04-01T06:16:10.564Z,96704.16
2023-04-01T06:18:11.234Z,96698.06
2023-04-01T06:20:18.033Z,96697.88
2023-04-01T06:22:08.539Z,96700.16
2023-04-01T06:24:07.184Z,96702.31
2023-04-01T06:25:47.972Z,96698.81
2023-04-01T06:27:50.575Z,96696.66
2023-04-01T06:29:43.715Z,96709.03
2023-04-01T06:31:40.076Z,96701.59
2023-04-01T06:33:31.351Z,96696.19
2023-04-01T06:35:03.034Z,96702.31
2023-04-01T06:36:43.814Z,96697.19
2023-04-01T06:38:45.867Z,96691.59
2023-04-01T06:40:39.463Z,96693.66
2023-04-01T06:42:31.936Z,96700.31
2023-04-01T06:44:14.373Z,96703.53
2023-04-01T06:46:21.461Z,96696.16
2023-04-01T06:48:45.421Z,96697.97
2023-04-01T06:51:18.539Z,96693.91
2023-04-01T06:53:26.003Z,96697.22
2023-04-01T06:55:22.908Z,96676.94
2023-04-01T06:57:30.540Z,96679.63
2023-04-01T06:59:05.753Z,96688.06
2023-04-01T07:00:41.755Z,96691.47
2023-04-01T07:02:25.596Z,96692.06
2023-04-01T07:04:02.980Z,96690.94
2023-04-01T07:05:36.937Z,96685.81
2023-04-01T07:07:20.573Z,96690.44
2023-04-01T07:09:06.522Z,96689.28
2023-04-01T07:11:03.242Z,96685.84
2023-04-01T07:12:57.435Z,96690.53
2023-04-01T07:14:52.108Z,96689.28
2023-04-01T07:16:29.794Z,96688.28
2023-04-01T07:18:29.670Z,96688.91
2023-04-01T07:20:10.419Z,96690.94
2023-04-01T07:21:49.914Z,96699.22
2023-04-01T07:23:43.381Z,96685.19
2023-04-01T07:25:38.856Z,96694.06
2023-04-01T07:27:33.621Z,96688.13
2023-04-01T07:29:11.506Z,96688.56
2023-04-01T07:31:01.773Z,96687.19
2023-04-01T07:32:59.172Z,96687.75
2023-04-01T07:34:59.458Z,96686.41
2023-04-01T07:36:39.857Z,96691.50
2023-04-01T07:38:41.516Z,96693.50
2023-04-01T07:40:52.338Z,96695.50
2023-04-01T07:42:38.470Z,96691.69
2023-04-01T07:44:40.345Z,96700.13
2023-04-01T07:46:17.598Z,96706.59
2023-04-01T07:48:16.607Z,96690.28
2023-04-01T07:50:22.157Z,96691.28
2023-04-01T07:51:56.688Z,96700.75
2023-04-01T07:54:14.876Z,96704.56
2023-04-01T07:55:47.843Z,96701.88
2023-04-01T07:57:28.543Z,96701.66
2023-04-01T07:59:00.867Z,96700.72
2023-04-01T08:01:02.776Z,96698.38
2023-04-01T08:02:53.782Z,96707.19
2023-04-01T08:04:57.435Z,96708.16
2023-04-01T08:06:52.082Z,96708.91
2023-04-01T08:08:35.299Z,96704.69
2023-04-01T08:10:51.465Z,96715.22
2023-04-01T08:12:58.610Z,96712.84
2023-04-01T08:15:06.533Z,96713.47
2023-04-01T08:17:18.891Z,96715.19
2023-04-01T08:18:56.273Z,96713.47
2023-04-01T08:20:51.448Z,96719.06
2023-04-01T08:22:30.292Z,96720.06
2023-04-01T08:24:22.230Z,96716.03
2023-04-01T08:26:18.890Z,96718.09
2023-04-01T08:28:20.305Z,96721.13
2023-04-01T08:29:59.776Z,96717.09
2023-04-01T08:31:59.295Z,96718.91
2023-04-01T08:33:33.198Z,96724.56
2023-04-01T08:35:34.896Z,96729.34
2023-04-01T08:37:15.115Z,96720.06
2023-04-01T08:38:50.005Z,96723.41
2023-04-01T08:40:42.047Z,96725.16
2023-04-01T08:42:13.693Z,96727.28
2023-04-01T08:44:12.987Z,96724.47
2023-04-01T08:46:04.396Z,96731.88
2023-04-01T08:47:36.214Z,96728.97
2023-04-01T08:49:13.813Z,96731.38
2023-04-01T08:51:08.767Z,96727.56
2023-04-01T08:53:16.232Z,96729.34
2023-04-01T08:55:04.024Z,96730.59
2023-04-01T08:57:14.206Z,96721.56
2023-04-01T08:59:18.359Z,96732.22
2023-04-01T09:01:12.343Z,96725.91
2023-04-01T09:02:59.108Z,96725.91
2023-04-01T09:04:56.647Z,96734.41
2023-04-01T09:06:41.422Z,96734.41
2023-04-01T09:08:25.425Z,96738.16
2023-04-01T09:10:34.746Z,96737.38
2023-04-01T09:12:37.068Z,96739.84
2023-04-01T09:14:27.466Z,96741.75
2023-04-01T09:16:40.442Z,96742.38
2023-04-01T09:18:25.078Z,96751.09
2023-04-01T09:20:31.770Z,96749.69
2023-04-01T09:22:12.939Z,96745.31
2023-04-01T09:23:44.544Z,96747.69
2023-04-01T09:25:42.791Z,96747.50
2023-04-01T09:27:42.027Z,96753.56
2023-04-01T09:29:41.051Z,96751.66
2023-04-01T09:31:21.536Z,96746.72
2023-04-01T09:33:31.553Z,96745.97
2023-04-01T09:35:41.904Z,96756.00
2023-04-01T09:37:22.534Z,96759.16
2023-04-01T09:38:59.968Z,96754.28
2023-04-01T09:40:32.696Z,96757.09
2023-04-01T09:42:13.477Z,96767.03
2023-04-01T09:44:04.853Z,96770.06
2023-04-01T09:46:05.109Z,96777.13
2023-04-01T09:47:52.754Z,96776.41
2023-04-01T09:49:43.266Z,96778.22
2023-04-01T09:51:20.935Z,96776.34
2023-04-01T09:53:20.071Z,96778.69
2023-04-01T09:55:09.689Z,96782.69
2023-04-01T09:56:41.406Z,96778.97
2023-04-01T09:58:34.538Z,96782.44
2023-04-01T10:01:13.399Z,96779.25
2023-04-01T10:02:53.860Z,96782.22
2023-04-01T10:04:51.259Z,96775.09
2023-04-01T10:07:14.568Z,96781.75
2023-04-01T10:09:07.751Z,96782.16
2023-04-01T10:10:57.834Z,96781.16
2023-04-01T10:12:40.830Z,96785.56
2023-04-01T10:14:24.507Z,96780.50
2023-04-01T10:16:14.989Z,96786.53
2023-04-01T10:17:55.783Z,96785.97
2023-04-01T10:20:06.944Z,96780.22
2023-04-01T10:22:05.471Z,96786.25
2023-04-01T10:23:56.848Z,96782.50
2023-04-01T10:25:52.850Z,96781.06
2023-04-01T10:27:53.869Z,96786.72
2023-04-01T10:29:43.930Z,96790.47
2023-04-01T10:31:36.978Z,96794.53
2023-04-01T10:33:17.576Z,96782.75
2023-04-01T10:35:27.742Z,96782.72
2023-04-01T10:37:09.557Z,96789.97
2023-04-01T10:39:12.313Z,96791.97
2023-04-01T10:41:13.294Z,96784.56
2023-04-01T10:43:13.428Z,96794.22
2023-04-01T10:44:56.148Z,96792.00
2023-04-01T10:47:26.788Z,96796.91
2023-04-01T10:49:26.214Z,96796.09
2023-04-01T10:51:19.515Z,96794.06
2023-04-01T10:53:01.467Z,96782.13
2023-04-01T10:55:20.631Z,96789.56
2023-04-01T10:57:57.444Z,96786.03
2023-04-01T11:00:05.159Z,96786.06
2023-04-01T11:02:33.882Z,96787.72
2023-04-01T11:04:24.213Z,96790.09
2023-04-01T11:06:38.665Z,96792.97
2023-04-01T11:08:19.573Z,96793.78
2023-04-01T11:10:09.617Z,96790.84
2023-04-01T11:11:56.916Z,96789.00
2023-04-01T11:13:34.566Z,96791.28
2023-04-01T11:15:11.839Z,96800.59
2023-04-01T11:16:58.745Z,96782.59
2023-04-01T11:18:57.785Z,96793.56
2023-04-01T11:20:57.785Z,96793.44
2023-04-01T11:22:49.141Z,96801.91
2023-04-01T11:24:47.643Z,96794.28
2023-04-01T11:27:09.177Z,96802.75
2023-04-01T11:29:11.386Z,96806.09
2023-04-01T11:30:59.741Z,96800.69
2023-04-01T11:32:43.439Z,96798.94
2023-04-01T11:34:20.046Z,96799.94
2023-04-01T11:35:54.643Z,96813.63
2023-04-01T11:37:56.194Z,96818.03
2023-04-01T11:40:00.051Z,96811.06
2023-04-01T11:42:16.274Z,96818.53
2023-04-01T11:44:21.401Z,96811.72
2023-04-01T11:46:16.531Z,96814.94
2023-04-01T11:48:08.279Z,96811.31
2023-04-01T11:50:16.279Z,96817.16
2023-04-01T11:52:17.700Z,96822.53
2023-04-01T11:54:01.631Z,96808.84
2023-04-01T11:55:39.926Z,96817.19
2023-04-01T11:57:41.877Z,96816.84
2023-04-01T11:59:28.586Z,96814.69
2023-04-01T12:01:03.083Z,96817.50
2023-04-01T12:02:52.853Z,96824.75
2023-04-01T12:05:02.197Z,96822.06
2023-04-01T12:06:54.899Z,96827.94
2023-04-01T12:08:38.041Z,96837.34
2023-04-01T12:10:18.977Z,96823.69
2023-04-01T12:12:12.357Z,96829.13
2023-04-01T12:13:46.704Z,96829.63
2023-04-01T12:15:38.564Z,96823.81
2023-04-01T12:17:13.114Z,96828.19
2023-04-01T12:18:52.014Z,96835.06
2023-04-01T12:20:46.142Z,96834.91
2023-04-01T12:22:42.215Z,96825.06
2023-04-01T12:24:38.597Z,96833.56
2023-04-01T12:26:22.324Z,96836.56
2023-04-01T12:28:24.112Z,96834.75
2023-04-01T12:30:01.725Z,96842.00
2023-04-01T12:32:10.767Z,96838.97
2023-04-01T12:34:01.684Z,96848.81
2023-04-01T12:35:51.794Z,96838.16
2023-04-01T12:37:48.359Z,96835.13
2023-04-01T12:39:53.878Z,96840.63
2023-04-01T12:41:55.603Z,96840.47
2023-04-01T12:43:40.870Z,96845.09
2023-04-01T12:45:32.162Z,96848.34
2023-04-01T12:47:17.829Z,96844.31
2023-04-01T12:49:11.020Z,96836.44
2023-04-01T12:51:15.639Z,96841.31
2023-04-01T12:53:07.774Z,96837.91
2023-04-01T12:54:51.123Z,96840.13
2023-04-01T12:56:50.622Z,96841.75
2023-04-01T12:58:58.064Z,96842.13
2023-04-01T13:00:43.349Z,96849.38
2023-04-01T13:02:40.738Z,96846.38
2023-04-01T13:04:49.879Z,96835.25
2023-04-01T13:07:07.185Z,96841.31
2023-04-01T13:08:57.080Z,96839.50
2023-04-01T13:10:39.592Z,96838.88
2023-04-01T13:12:37.056Z,96840.94
2023-04-01T13:14:36.651Z,96834.25
2023-04-01T13:16:30.702Z,96838.88
2023-04-01T13:18:21.111Z,96841.09
2023-04-01T13:20:11.019Z,96829.47
2023-04-01T13:22:01.211Z,96830.81
2023-04-01T13:23:51.830Z,96838.63
2023-04-01T13:25:42.922Z,96839.56
2023-04-01T13:27:35.629Z,96838.63
2023-04-01T13:29:24.497Z,96836.69
2023-04-01T13:31:08.599Z,96845.78
2023-04-01T13:33:06.116Z,96834.25
2023-04-01T13:34:50.634Z,96843.78
2023-04-01T13:36:28.337Z,96838.88
2023-04-01T13:38:36.913Z,96849.81
2023-04-01T13:40:55.690Z,96839.09
2023-04-01T13:42:42.412Z,96849.59
2023-04-01T13:44:13.972Z,96837.28
2023-04-01T13:46:03.897Z,96846.75
2023-04-01T13:47:57.330Z,96839.31
2023-04-01T13:50:13.800Z,96846.16
2023-04-01T13:52:16.398Z,96845.56
2023-04-01T13:54:26.968Z,96852.22
2023-04-01T13:56:01.671Z,96854.84
2023-04-01T13:57:44.333Z,96850.63
2023-04-01T13:59:18.832Z,96847.00
2023-04-01T14:01:26.571Z,96853.44
2023-04-01T14:03:54.976Z,96864.16
2023-04-01T14:05:39.885Z,96848.41
2023-04-01T14:07:14.553Z,96850.63
2023-04-01T14:09:04.659Z,96846.78
2023-04-01T14:10:36.391Z,96851.00
2023-04-01T14:12:19.846Z,96857.88
2023-04-01T14:14:17.453Z,96856.47
2023-04-01T14:15:55.006Z,96871.00
2023-04-01T14:17:32.747Z,96848.22
2023-04-01T14:19:08.393Z,96865.16
2023-04-01T14:21:08.916Z,96859.91
2023-04-01T14:23:05.879Z,96860.31
2023-04-01T14:24:59.436Z,96860.94
2023-04-01T14:26:49.708Z,96859.50
2023-04-01T14:28:45.852Z,96863.13
2023-04-01T14:30:46.611Z,96863.94
2023-04-01T14:32:30.309Z,96867.38
2023-04-01T14:34:30.966Z,96869.00
2023-04-01T14:36:23.987Z,96874.66
2023-04-01T14:38:07.576Z,96866.78
2023-04-01T14:39:57.365Z,96866.78
2023-04-01T14:41:50.048Z,96872.25
2023-04-01T14:43:44.437Z,96867.19
2023-04-01T14:45:43.654Z,96875.88
2023-04-01T14:47:21.394Z,96871.44
2023-04-01T14:49:23.955Z,96860.50
2023-04-01T14:50:58.803Z,96867.97
2023-04-01T14:52:36.896Z,96866.75
2023-04-01T14:54:35.738Z,96863.56
2023-04-01T14:56:07.447Z,96865.97
2023-04-01T14:57:39.080Z,96859.50
2023-04-01T14:59:28.047Z,96868.00
2023-04-01T15:01:17.960Z,96869.38
2023-04-01T15:03:19.277Z,96870.63
2023-04-01T15:04:57.042Z,96874.25
2023-04-01T15:06:42.734Z,96875.25
2023-04-01T15:08:23.629Z,96878.69
2023-04-01T15:10:22.147Z,96881.75
2023-04-01T15:12:14.074Z,96883.94
2023-04-01T15:14:02.818Z,96877.88
2023-04-01T15:15:40.773Z,96882.75
2023-04-01T15:17:39.888Z,96885.75
2023-04-01T15:19:33.252Z,96885.38
2023-04-01T15:21:19.172Z,96887.75
2023-04-01T15:23:15.938Z,96891.81
2023-04-01T15:25:00.181Z,96891.34
2023-04-01T15:26:48.440Z,96889.53
2023-04-01T15:28:20.109Z,96896.13
2023-04-01T15:30:10.499Z,96895.38
2023-04-01T15:32:03.768Z,96893.56
2023-04-01T15:33:53.892Z,96899.63
2023-04-01T15:35:53.296Z,96912.13
2023-04-01T15:37:37.139Z,96913.13
2023-04-01T15:39:08.737Z,96902.59
2023-04-01T15:40:46.182Z,96915.47
2023-04-01T15:42:32.996Z,96911.84
2023-04-01T15:44:04.695Z,96913.41
2023-04-01T15:45:42.268Z,96917.47
2023-04-01T15:47:26.025Z,96915.47
2023-04-01T15:49:29.994Z,96910.22
2023-04-01T15:51:23.219Z,96916.63
2023-04-01T15:53:08.854Z,96915.78
2023-04-01T15:55:04.691Z,96920.03
2023-04-01T15:56:57.517Z,96920.03
2023-04-01T15:58:47.563Z,96919.47
2023-04-01T16:00:27.700Z,96916.06
2023-04-01T16:02:14.195Z,96918.47
2023-04-01T16:03:55.063Z,96922.91
2023-04-01T16:05:38.541Z,96918.22
2023-04-01T16:07:25.534Z,96921.44
2023-04-01T16:09:11.859Z,96921.47
2023-04-01T16:11:05.421Z,96919.84
2023-04-01T16:12:46.334Z,96915.88
2023-04-01T16:14:39.156Z,96918.22
2023-04-01T16:16:32.323Z,96921.41
2023-04-01T16:18:19.703Z,96914.22
2023-04-01T16:20:14.300Z,96927.13
2023-04-01T16:22:02.662Z,96921.66
2023-04-01T16:23:49.616Z,96916.38
2023-04-01T16:25:32.641Z,96917.81
2023-04-01T16:27:10.159Z,96916.78
2023-04-01T16:28:55.562Z,96915.72
2023-04-01T16:30:36.066Z,96922.84
2023-04-01T16:32:20.147Z,96921.03
2023-04-01T16:34:19.565Z,96913.38
2023-04-01T16:36:01.924Z,96908.13
2023-04-01T16:37:50.167Z,96912.13
2023-04-01T16:39:44.609Z,96917.81
2023-04-01T16:41:21.681Z,96922.50
2023-04-01T16:43:12.712Z,96918.47
2023-04-01T16:45:08.398Z,96908.94
2023-04-01T16:46:47.393Z,96908.94
2023-04-01T16:48:26.913Z,96915.97
2023-04-01T16:50:47.788Z,96916.97
2023-04-01T16:52:31.682Z,96924.66
2023-04-01T16:54:11.820Z,96917.38
2023-04-01T16:55:54.105Z,96918.16
2023-04-01T16:57:31.599Z,96921.34
2023-04-01T16:59:23.248Z,96918.31
2023-04-01T17:01:08.739Z,96916.53
2023-04-01T17:02:51.151Z,96915.50
2023-04-01T17:04:44.352Z,96920.56
2023-04-01T17:06:46.765Z,96920.38
2023-04-01T17:08:29.689Z,96914.72
2023-04-01T17:10:25.823Z,96920.94
2023-04-01T17:12:16.225Z,96923.28
2023-04-01T17:13:51.057Z,96920.38
2023-04-01T17:15:43.016Z,96924.75
2023-04-01T17:17:42.168Z,96913.22
2023-04-01T17:19:35.818Z,96927.50
2023-04-01T17:21:30.658Z,96920.63
2023-04-01T17:23:09.274Z,96927.75
2023-04-01T17:24:58.819Z,96929.69
2023-04-01T17:26:43.328Z,96926.38
2023-04-01T17:28:50.788Z,96932.41
2023-04-01T17:30:44.026Z,96933.81
2023-04-01T17:32:40.944Z,96935.00
2023-04-01T17:34:22.183Z,96940.84
2023-04-01T17:36:12.147Z,96945.06
2023-04-01T17:38:18.282Z,96945.88
2023-04-01T17:40:21.275Z,96949.75
2023-04-01T17:42:07.344Z,96952.16
2023-04-01T17:43:46.921Z,96950.13
2023-04-01T17:45:21.690Z,96949.16
2023-04-01T17:47:27.450Z,96955.69
2023-04-01T17:49:40.994Z,96961.44
2023-04-01T17:51:24.152Z,96955.63
2023-04-01T17:53:00.681Z,96956.41
2023-04-01T17:54:47.249Z,96957.03
2023-04-01T17:56:45.209Z,96962.00
2023-04-01T17:58:19.955Z,96967.63
2023-04-01T18:00:04.497Z,96970.50
2023-04-01T18:01:57.326Z,96969.69
2023-04-01T18:04:01.639Z,96968.44
2023-04-01T18:05:35.820Z,96972.13
2023-04-01T18:07:23.598Z,96967.81
2023-04-01T18:09:14.930Z,96970.22
2023-04-01T18:10:52.408Z,96963.34
2023-04-01T18:13:17.720Z,96971.44
2023-04-01T18:14:58.544Z,96973.09
2023-04-01T18:16:39.263Z,96980.38
2023-04-01T18:18:31.860Z,96985.34
2023-04-01T18:20:40.458Z,96980.69
2023-04-01T18:22:41.968Z,96988.53
2023-04-01T18:24:19.782Z,96991.63
2023-04-01T18:26:02.789Z,97000.88
2023-04-01T18:27:53.076Z,97000.88
2023-04-01T18:29:41.288Z,97006.16
2023-04-01T18:31:20.129Z,97015.16
2023-04-01T18:33:13.325Z,97020.53
2023-04-01T18:34:57.087Z,97030.06
2023-04-01T18:36:53.075Z,97024.53
2023-04-01T18:38:41.326Z,97035.88
2023-04-01T18:40:25.255Z,97039.78
2023-04-01T18:42:34.416Z,97048.63
2023-04-01T18:44:32.451Z,97061.41
2023-04-01T18:46:19.271Z,97056.41
2023-04-01T18:47:59.946Z,97061.81
2023-04-01T18:49:44.383Z,97051.44
2023-04-01T18:51:23.890Z,97058.25
2023-04-01T18:53:23.060Z,97067.50
2023-04-01T18:55:03.771Z,97070.03
2023-04-01T18:56:44.894Z,97063.72
2023-04-01T18:58:51.643Z,97066.25
2023-04-01T19:00:34.022Z,97073.72
2023-04-01T19:02:08.699Z,97072.09
2023-04-01T19:03:59.203Z,97075.50
2023-04-01T19:05:37.741Z,97068.03
2023-04-01T19:07:38.113Z,97059.28
2023-04-01T19:09:21.168Z,97064.69
2023-04-01T19:11:11.805Z,97059.00
2023-04-01T19:13:23.743Z,97067.56
2023-04-01T19:15:06.584Z,97068.19
2023-04-01T19:17:06.017Z,97070.38
2023-04-01T19:18:37.566Z,97071.81
2023-04-01T19:20:22.460Z,97072.31
2023-04-01T19:21:58.109Z,97076.28
2023-04-01T19:23:56.034Z,97074.91
2023-04-01T19:25:44.117Z,97077.13
2023-04-01T19:27:38.671Z,97071.03
2023-04-01T19:29:36.050Z,97067.84
2023-04-01T19:31:37.543Z,97077.09
2023-04-01T19:33:42.928Z,97074.34
2023-04-01T19:35:32.830Z,97069.47
2023-04-01T19:37:42.048Z,97081.19
2023-04-01T19:39:48.118Z,97080.88
2023-04-01T19:41:25.317Z,97078.75
2023-04-01T19:43:19.924Z,97083.84
2023-04-01T19:45:39.540Z,97083.09
2023-04-01T19:47:17.176Z,97073.53
2023-04-01T19:49:07.268Z,97072.81
2023-04-01T19:50:41.656Z,97077.69
2023-04-01T19:52:27.616Z,97075.34
2023-04-01T19:54:18.079Z,97075.44
2023-04-01T19:55:55.186Z,97078.25
2023-04-01T19:57:29.886Z,97074.03
2023-04-01T19:59:30.671Z,97084.31
2023-04-01T20:01:04.919Z,97078.84
2023-04-01T20:02:36.619Z,97080.00
2023-04-01T20:04:18.253Z,97081.84
2023-04-01T20:06:13.107Z,97084.66
2023-04-01T20:08:09.857Z,97089.53
2023-04-01T20:09:53.356Z,97094.75
2023-04-01T20:11:31.296Z,97103.22
2023-04-01T20:13:22.520Z,97103.28
2023-04-01T20:14:59.725Z,97104.25
2023-04-01T20:17:22.381Z,97103.09
2023-04-01T20:19:00.693Z,97107.59
2023-04-01T20:20:33.084Z,97110.28
2023-04-01T20:22:19.275Z,97110.91
2023-04-01T20:24:09.242Z,97115.78
2023-04-01T20:25:58.311Z,97114.00
2023-04-01T20:27:47.625Z,97120.03
2023-04-01T20:29:40.660Z,97114.16
2023-04-01T20:31:29.212Z,97117.16
2023-04-01T20:33:19.506Z,97118.28
2023-04-01T20:35:41.975Z,97117.00
2023-04-01T20:37:46.021Z,97115.38
2023-04-01T20:39:20.791Z,97121.72
2023-04-01T20:41:03.697Z,97123.91
2023-04-01T20:42:55.327Z,97125.03
2023-04-01T20:44:53.059Z,97129.47